Time,TemperatureF,DewpointF,PressureIn,WindDirection,WindDirectionDegrees,WindSpeedMPH,WindSpeedGustMPH,Humidity,HourlyPrecipIn,Conditions,Clouds,dailyrainin,SoftwareType,DateUTC
2013-04-09 00:05:00,44.1,39.0,30.02,North,6,0.0,0.0,81,0.00,,,0.00,vanprod,2013-04-09 04:05:00,
2013-04-09 00:15:00,44.2,38.0,30.02,North,7,0.0,0.0,80,0.00,,,0.00,vanprod,2013-04-09 04:15:00,
2013-04-09 00:25:00,44.3,39.0,30.02,North,7,0.0,0.0,80,0.00,,,0.00,vanprod,2013-04-09 04:25:00,
2013-04-09 00:35:00,44.5,38.0,30.02,North,1,0.0,0.0,79,0.00,,,0.00,vanprod,2013-04-09 04:35:00,
2013-04-09 00:45:00,44.8,38.0,30.01,North,3,0.0,0.0,77,0.00,,,0.00,vanprod,2013-04-09 04:45:00,
2013-04-09 00:55:00,45.1,38.0,30.01,North,4,0.0,0.0,76,0.00,,,0.00,vanprod,2013-04-09 04:55:00,
2013-04-09 01:05:00,45.4,38.0,30.01,North,1,0.0,0.0,74,0.00,,,0.00,vanprod,2013-04-09 05:05:00,
2013-04-09 01:15:00,46.0,38.0,30.00,North,3,0.0,0.0,73,0.00,,,0.00,vanprod,2013-04-09 05:15:00,
2013-04-09 01:25:00,46.1,38.0,30.00,North,3,0.0,0.0,72,0.00,,,0.00,vanprod,2013-04-09 05:25:00,
2013-04-09 01:35:00,46.2,38.0,29.99,North,4,0.0,0.0,73,0.00,,,0.00,vanprod,2013-04-09 05:35:00,
2013-04-09 01:45:00,46.1,38.0,29.98,North,4,0.0,0.0,73,0.00,,,0.00,vanprod,2013-04-09 05:45:00,
2013-04-09 01:55:00,46.0,38.0,29.98,North,3,0.0,0.0,72,0.00,,,0.00,vanprod,2013-04-09 05:55:00,
2013-04-09 02:05:00,45.8,38.0,29.98,North,3,0.0,0.0,73,0.00,,,0.00,vanprod,2013-04-09 06:05:00,
2013-04-09 02:15:00,45.8,38.0,29.96,North,4,0.0,0.0,74,0.00,,,0.00,vanprod,2013-04-09 06:15:00,
2013-04-09 02:25:00,45.8,38.0,29.96,North,3,0.0,0.0,73,0.00,,,0.00,vanprod,2013-04-09 06:25:00,
2013-04-09 02:35:00,46.1,38.0,29.95,North,1,0.0,0.0,72,0.00,,,0.00,vanprod,2013-04-09 06:35:00,
2013-04-09 02:45:00,46.4,38.0,29.94,North,4,0.0,0.0,73,0.00,,,0.00,vanprod,2013-04-09 06:45:00,
2013-04-09 02:55:00,46.5,38.0,29.94,North,3,0.0,0.0,72,0.00,,,0.00,vanprod,2013-04-09 06:55:00,
2013-04-09 03:05:00,46.7,38.0,29.94,North,3,0.0,0.0,71,0.00,,,0.00,vanprod,2013-04-09 07:05:00,
2013-04-09 03:15:00,46.8,39.0,29.93,North,3,0.0,0.0,74,0.00,,,0.00,vanprod,2013-04-09 07:15:00,
2013-04-09 03:25:00,46.7,41.0,29.93,North,4,0.0,0.0,79,0.00,,,0.00,vanprod,2013-04-09 07:25:00,
2013-04-09 03:35:00,46.2,40.0,29.93,North,4,0.0,0.0,80,0.00,,,0.00,vanprod,2013-04-09 07:35:00,
2013-04-09 03:45:00,46.0,41.0,29.93,North,6,0.0,0.0,81,0.00,,,0.00,vanprod,2013-04-09 07:45:00,
2013-04-09 03:55:00,45.8,40.0,29.93,North,4,0.0,0.0,79,0.00,,,0.00,vanprod,2013-04-09 07:55:00,
2013-04-09 04:05:00,45.8,39.0,29.92,North,7,0.0,0.0,77,0.00,,,0.00,vanprod,2013-04-09 08:05:00,
2013-04-09 04:15:00,45.8,39.0,29.91,North,4,0.0,0.0,77,0.00,,,0.00,vanprod,2013-04-09 08:15:00,
2013-04-09 04:25:00,45.8,39.0,29.91,North,1,0.0,0.0,78,0.00,,,0.00,vanprod,2013-04-09 08:25:00,
2013-04-09 04:35:00,45.8,40.0,29.91,North,8,0.0,0.0,81,0.00,,,0.00,vanprod,2013-04-09 08:35:00,
2013-04-09 04:45:00,45.7,41.0,29.93,NNE,13,0.0,0.0,83,0.00,,,0.00,vanprod,2013-04-09 08:45:00,
2013-04-09 04:55:00,45.4,40.0,29.93,NNE,14,0.0,2.0,82,0.00,,,0.00,vanprod,2013-04-09 08:55:00,
2013-04-09 05:05:00,45.1,41.0,29.91,NNE,17,0.0,2.0,84,0.00,,,0.00,vanprod,2013-04-09 09:05:00,
2013-04-09 05:15:00,44.9,40.0,29.91,NNE,14,0.0,0.0,83,0.00,,,0.00,vanprod,2013-04-09 09:15:00,
2013-04-09 05:25:00,44.9,41.0,29.91,NNE,18,1.0,3.0,85,0.00,,,0.00,vanprod,2013-04-09 09:25:00,
2013-04-09 05:35:00,44.8,41.0,29.93,NNE,24,2.0,2.0,87,0.14,,,0.02,vanprod,2013-04-09 09:35:00,
2013-04-09 05:45:00,44.3,41.0,29.90,NNE,21,1.0,6.0,88,0.08,,,0.03,vanprod,2013-04-09 09:45:00,
2013-04-09 05:55:00,43.9,41.0,29.90,North,0,2.0,3.0,90,0.04,,,0.04,vanprod,2013-04-09 09:55:00,
2013-04-09 06:05:00,43.6,41.0,29.89,North,1,3.0,6.0,91,0.07,,,0.05,vanprod,2013-04-09 10:05:00,
2013-04-09 06:15:00,43.2,41.0,29.85,North,7,5.0,5.0,92,0.08,,,0.06,vanprod,2013-04-09 10:15:00,
2013-04-09 06:25:00,43.1,41.0,29.85,North,4,1.0,0.0,92,0.04,,,0.07,vanprod,2013-04-09 10:25:00,
2013-04-09 06:35:00,43.1,41.0,29.86,North,4,1.0,0.0,93,0.04,,,0.07,vanprod,2013-04-09 10:35:00,
2013-04-09 06:45:00,43.2,41.0,29.86,North,4,1.0,0.0,93,0.00,,,0.07,vanprod,2013-04-09 10:45:00,
2013-04-09 06:55:00,43.2,41.0,29.86,North,4,0.0,0.0,93,0.00,,,0.07,vanprod,2013-04-09 10:55:00,
2013-04-09 07:05:00,43.2,41.0,29.87,North,3,0.0,0.0,93,0.00,,,0.07,vanprod,2013-04-09 11:05:00,
2013-04-09 07:15:00,43.3,42.0,29.86,North,7,0.0,0.0,94,0.00,,,0.07,vanprod,2013-04-09 11:15:00,
2013-04-09 07:25:00,43.5,42.0,29.86,North,6,0.0,0.0,94,0.00,,,0.07,vanprod,2013-04-09 11:25:00,
2013-04-09 07:35:00,43.6,42.0,29.86,North,6,0.0,0.0,94,0.00,,,0.07,vanprod,2013-04-09 11:35:00,
2013-04-09 07:45:00,43.6,42.0,29.86,North,6,0.0,0.0,94,0.00,,,0.07,vanprod,2013-04-09 11:45:00,
2013-04-09 07:55:00,43.6,42.0,29.86,North,6,0.0,0.0,94,0.00,,,0.07,vanprod,2013-04-09 11:55:00,
2013-04-09 08:05:00,43.9,42.0,29.85,North,6,0.0,0.0,94,0.00,,,0.07,vanprod,2013-04-09 12:05:00,
2013-04-09 08:15:00,44.1,42.0,29.84,North,6,0.0,0.0,94,0.00,,,0.07,vanprod,2013-04-09 12:15:00,
2013-04-09 08:25:00,44.3,43.0,29.84,North,7,0.0,0.0,94,0.00,,,0.07,vanprod,2013-04-09 12:25:00,
2013-04-09 08:35:00,44.6,43.0,29.84,North,4,0.0,1.0,94,0.00,,,0.07,vanprod,2013-04-09 12:35:00,
2013-04-09 08:45:00,44.6,43.0,29.83,North,6,0.0,0.0,94,0.00,,,0.07,vanprod,2013-04-09 12:45:00,
2013-04-09 08:55:00,44.8,43.0,29.83,North,4,0.0,0.0,93,0.00,,,0.07,vanprod,2013-04-09 12:55:00,
2013-04-09 09:05:00,45.2,43.0,29.82,North,4,0.0,0.0,93,0.00,,,0.07,vanprod,2013-04-09 13:05:00,
2013-04-09 09:15:00,45.4,43.0,29.81,North,4,0.0,0.0,93,0.00,,,0.07,vanprod,2013-04-09 13:15:00,
2013-04-09 09:25:00,45.7,43.0,29.81,North,4,0.0,0.0,92,0.00,,,0.07,vanprod,2013-04-09 13:25:00,
2013-04-09 09:35:00,46.0,44.0,29.81,North,3,0.0,0.0,92,0.00,,,0.07,vanprod,2013-04-09 13:35:00,
2013-04-09 09:45:00,46.1,44.0,29.82,NNE,18,0.0,0.0,91,0.00,,,0.07,vanprod,2013-04-09 13:45:00,
2013-04-09 09:55:00,46.0,43.0,29.82,North,0,0.0,0.0,91,0.00,,,0.07,vanprod,2013-04-09 13:55:00,
2013-04-09 10:05:00,46.2,43.0,29.81,North,3,0.0,0.0,90,0.00,,,0.07,vanprod,2013-04-09 14:05:00,
2013-04-09 10:15:00,46.1,43.0,29.83,NNE,16,1.0,3.0,90,0.00,,,0.07,vanprod,2013-04-09 14:15:00,
2013-04-09 10:25:00,46.4,44.0,29.83,NNE,14,0.0,0.0,91,0.00,,,0.07,vanprod,2013-04-09 14:25:00,
2013-04-09 10:35:00,46.5,44.0,29.82,NNE,13,1.0,0.0,91,0.00,,,0.07,vanprod,2013-04-09 14:35:00,
2013-04-09 10:45:00,46.7,44.0,29.82,North,10,1.0,1.0,91,0.00,,,0.07,vanprod,2013-04-09 14:45:00,
2013-04-09 10:55:00,47.0,44.0,29.82,NNE,14,1.0,0.0,91,0.00,,,0.07,vanprod,2013-04-09 14:55:00,
2013-04-09 11:05:00,47.4,45.0,29.83,NNE,14,2.0,0.0,91,0.00,,,0.07,vanprod,2013-04-09 15:05:00,
2013-04-09 11:15:00,47.6,45.0,29.82,North,10,1.0,4.0,90,0.00,,,0.07,vanprod,2013-04-09 15:15:00,
2013-04-09 11:25:00,48.0,45.0,29.82,NNE,14,1.0,0.0,90,0.00,,,0.07,vanprod,2013-04-09 15:25:00,
2013-04-09 11:35:00,48.3,45.0,29.82,North,1,2.0,3.0,88,0.00,,,0.07,vanprod,2013-04-09 15:35:00,
2013-04-09 11:45:00,49.1,45.0,29.80,North,0,1.0,0.0,87,0.00,,,0.07,vanprod,2013-04-09 15:45:00,
2013-04-09 11:55:00,50.1,46.0,29.80,North,8,0.0,6.0,87,0.00,,,0.07,vanprod,2013-04-09 15:55:00,
2013-04-09 12:05:00,51.9,47.0,29.82,North,0,2.0,0.0,84,0.00,,,0.07,vanprod,2013-04-09 16:05:00,
2013-04-09 12:15:00,52.9,47.0,29.82,North,0,3.0,3.0,80,0.00,,,0.07,vanprod,2013-04-09 16:15:00,
2013-04-09 12:25:00,54.1,48.0,29.82,North,10,1.0,0.0,79,0.00,,,0.07,vanprod,2013-04-09 16:25:00,
2013-04-09 12:35:00,55.6,48.0,29.80,North,6,1.0,1.0,76,0.00,,,0.07,vanprod,2013-04-09 16:35:00,
2013-04-09 12:45:00,56.5,48.0,29.79,North,0,2.0,2.0,74,0.00,,,0.07,vanprod,2013-04-09 16:45:00,
2013-04-09 12:55:00,57.3,48.0,29.79,North,1,2.0,0.0,71,0.00,,,0.07,vanprod,2013-04-09 16:55:00,
2013-04-09 13:05:00,58.3,49.0,29.80,North,0,2.0,0.0,71,0.00,,,0.07,vanprod,2013-04-09 17:05:00,
2013-04-09 13:15:00,58.7,49.0,29.81,North,1,3.0,5.0,69,0.00,,,0.07,vanprod,2013-04-09 17:15:00,
2013-04-09 13:25:00,58.6,49.0,29.81,North,7,2.0,0.0,69,0.00,,,0.07,vanprod,2013-04-09 17:25:00,
2013-04-09 13:35:00,59.9,47.0,29.81,North,7,3.0,11.0,63,0.00,,,0.07,vanprod,2013-04-09 17:35:00,
2013-04-09 13:45:00,61.8,48.0,29.81,North,6,5.0,7.0,61,0.00,,,0.07,vanprod,2013-04-09 17:45:00,
2013-04-09 13:55:00,62.3,47.0,29.81,North,7,6.0,6.0,58,0.00,,,0.07,vanprod,2013-04-09 17:55:00,
2013-04-09 14:05:00,62.3,48.0,29.82,North,7,5.0,5.0,59,0.00,,,0.07,vanprod,2013-04-09 18:05:00,
2013-04-09 14:15:00,62.1,47.0,29.82,North,6,5.0,5.0,57,0.00,,,0.07,vanprod,2013-04-09 18:15:00,
2013-04-09 14:25:00,62.3,47.0,29.82,North,8,5.0,7.0,58,0.00,,,0.07,vanprod,2013-04-09 18:25:00,
2013-04-09 14:35:00,62.9,48.0,29.82,North,11,4.0,4.0,57,0.00,,,0.07,vanprod,2013-04-09 18:35:00,
2013-04-09 14:45:00,63.2,47.0,29.82,North,10,5.0,5.0,55,0.00,,,0.07,vanprod,2013-04-09 18:45:00,
2013-04-09 14:55:00,63.2,48.0,29.82,North,7,4.0,4.0,58,0.00,,,0.07,vanprod,2013-04-09 18:55:00,
2013-04-09 15:05:00,62.7,48.0,29.82,North,7,7.0,7.0,58,0.00,,,0.07,vanprod,2013-04-09 19:05:00,
2013-04-09 15:15:00,62.7,47.0,29.82,North,6,5.0,5.0,56,0.00,,,0.07,vanprod,2013-04-09 19:15:00,
2013-04-09 15:25:00,62.9,47.0,29.82,North,8,3.0,3.0,55,0.00,,,0.07,vanprod,2013-04-09 19:25:00,
2013-04-09 15:45:00,63.4,47.0,29.82,North,4,3.0,6.0,54,0.00,,,0.07,vanprod,2013-04-09 19:45:00,
2013-04-09 15:55:00,63.5,46.0,29.82,North,6,3.0,3.0,52,0.00,,,0.07,vanprod,2013-04-09 19:55:00,
2013-04-09 16:05:00,63.2,45.0,29.84,South,188,4.0,7.0,51,0.00,,,0.07,vanprod,2013-04-09 20:05:00,
2013-04-09 16:15:00,62.7,45.0,29.84,North,7,3.0,0.0,53,0.00,,,0.07,vanprod,2013-04-09 20:15:00,
2013-04-09 16:25:00,63.2,45.0,29.84,North,7,4.0,8.0,51,0.00,,,0.07,vanprod,2013-04-09 20:25:00,
2013-04-09 16:35:00,63.5,45.0,29.84,North,6,5.0,5.0,50,0.00,,,0.07,vanprod,2013-04-09 20:35:00,
2013-04-09 16:45:00,63.4,44.0,29.84,North,8,3.0,5.0,49,0.00,,,0.07,vanprod,2013-04-09 20:45:00,
2013-04-09 16:55:00,63.4,43.0,29.84,North,6,3.0,3.0,48,0.00,,,0.07,vanprod,2013-04-09 20:55:00,
2013-04-09 17:05:00,62.9,43.0,29.84,North,0,3.0,3.0,48,0.00,,,0.07,vanprod,2013-04-09 21:05:00,
2013-04-09 17:15:00,62.4,42.0,29.84,North,7,4.0,4.0,48,0.00,,,0.07,vanprod,2013-04-09 21:15:00,
2013-04-09 17:25:00,62.3,43.0,29.84,North,6,2.0,3.0,49,0.00,,,0.07,vanprod,2013-04-09 21:25:00,
2013-04-09 17:35:00,61.5,42.0,29.86,North,1,5.0,12.0,48,0.00,,,0.07,vanprod,2013-04-09 21:35:00,
2013-04-09 17:45:00,61.3,43.0,29.87,North,6,4.0,5.0,50,0.00,,,0.07,vanprod,2013-04-09 21:45:00,
2013-04-09 17:55:00,61.0,43.0,29.87,North,8,3.0,5.0,51,0.00,,,0.07,vanprod,2013-04-09 21:55:00,
2013-04-09 18:05:00,60.7,42.0,29.89,North,0,4.0,6.0,50,0.00,,,0.07,vanprod,2013-04-09 22:05:00,
2013-04-09 18:15:00,60.5,42.0,29.89,South,176,2.0,2.0,50,0.00,,,0.07,vanprod,2013-04-09 22:15:00,
2013-04-09 18:25:00,60.1,42.0,29.89,North,3,2.0,2.0,52,0.00,,,0.07,vanprod,2013-04-09 22:25:00,
2013-04-09 18:35:00,59.6,43.0,29.90,North,8,1.0,0.0,55,0.00,,,0.07,vanprod,2013-04-09 22:35:00,
2013-04-09 18:45:00,58.9,44.0,29.90,North,6,1.0,2.0,57,0.00,,,0.07,vanprod,2013-04-09 22:45:00,
2013-04-09 18:55:00,58.3,43.0,29.90,North,0,1.0,0.0,57,0.00,,,0.07,vanprod,2013-04-09 22:55:00,
2013-04-09 19:05:00,57.5,43.0,29.89,North,0,1.0,2.0,58,0.00,,,0.07,vanprod,2013-04-09 23:05:00,
2013-04-09 19:15:00,56.9,43.0,29.90,North,10,1.0,0.0,59,0.00,,,0.07,vanprod,2013-04-09 23:15:00,
2013-04-09 19:25:00,56.2,42.0,29.90,North,1,1.0,0.0,58,0.00,,,0.07,vanprod,2013-04-09 23:25:00,
2013-04-09 19:35:00,55.6,42.0,29.90,North,1,1.0,0.0,59,0.00,,,0.07,vanprod,2013-04-09 23:35:00,
2013-04-09 19:45:00,55.1,42.0,29.90,North,1,1.0,1.0,60,0.00,,,0.07,vanprod,2013-04-09 23:45:00,
2013-04-09 19:55:00,54.7,42.0,29.90,North,0,0.0,0.0,61,0.00,,,0.07,vanprod,2013-04-09 23:55:00,
2013-04-09 20:05:00,54.2,42.0,29.90,South,174,0.0,0.0,62,0.00,,,0.07,vanprod,2013-04-10 00:05:00,
2013-04-09 20:15:00,53.6,41.0,29.91,North,1,1.0,1.0,63,0.00,,,0.07,vanprod,2013-04-10 00:15:00,
2013-04-09 20:25:00,53.2,41.0,29.91,North,1,1.0,0.0,62,0.00,,,0.07,vanprod,2013-04-10 00:25:00,
2013-04-09 20:35:00,52.9,40.0,29.91,South,186,0.0,0.0,62,0.00,,,0.07,vanprod,2013-04-10 00:35:00,
2013-04-09 20:45:00,52.6,40.0,29.92,North,0,1.0,0.0,62,0.00,,,0.07,vanprod,2013-04-10 00:45:00,
2013-04-09 20:55:00,52.3,40.0,29.92,North,1,1.0,1.0,63,0.00,,,0.07,vanprod,2013-04-10 00:55:00,
2013-04-09 21:05:00,52.2,41.0,29.94,North,0,0.0,0.0,65,0.00,,,0.07,vanprod,2013-04-10 01:05:00,
2013-04-09 21:15:00,51.7,40.0,29.95,North,8,1.0,0.0,65,0.00,,,0.07,vanprod,2013-04-10 01:15:00,
2013-04-09 21:25:00,51.3,40.0,29.95,North,0,0.0,0.0,66,0.00,,,0.07,vanprod,2013-04-10 01:25:00,
2013-04-09 21:35:00,50.7,41.0,29.95,North,0,0.0,0.0,68,0.00,,,0.07,vanprod,2013-04-10 01:35:00,
2013-04-09 21:45:00,50.4,41.0,29.96,North,0,0.0,0.0,69,0.00,,,0.07,vanprod,2013-04-10 01:45:00,
2013-04-09 21:55:00,49.8,41.0,29.96,North,3,0.0,2.0,71,0.00,,,0.07,vanprod,2013-04-10 01:55:00,
2013-04-09 22:05:00,49.4,42.0,29.95,North,3,0.0,0.0,74,0.00,,,0.07,vanprod,2013-04-10 02:05:00,
2013-04-09 22:15:00,48.9,41.0,29.94,North,1,0.0,0.0,75,0.00,,,0.07,vanprod,2013-04-10 02:15:00,
2013-04-09 22:25:00,48.6,42.0,29.94,North,1,0.0,0.0,77,0.00,,,0.07,vanprod,2013-04-10 02:25:00,
2013-04-09 22:35:00,48.5,42.0,29.95,North,1,0.0,0.0,78,0.00,,,0.07,vanprod,2013-04-10 02:35:00,
2013-04-09 22:45:00,48.2,41.0,29.96,North,0,0.0,1.0,77,0.00,,,0.07,vanprod,2013-04-10 02:45:00,
2013-04-09 22:55:00,47.9,41.0,29.96,North,4,0.0,2.0,78,0.00,,,0.07,vanprod,2013-04-10 02:55:00,
2013-04-09 23:05:00,47.6,41.0,29.95,North,6,0.0,0.0,79,0.00,,,0.07,vanprod,2013-04-10 03:05:00,
2013-04-09 23:15:00,47.3,41.0,29.93,North,4,0.0,0.0,80,0.00,,,0.07,vanprod,2013-04-10 03:15:00,
2013-04-09 23:25:00,47.0,41.0,29.93,North,4,0.0,0.0,81,0.00,,,0.07,vanprod,2013-04-10 03:25:00,
2013-04-09 23:35:00,46.8,41.0,29.93,North,4,0.0,1.0,81,0.00,,,0.07,vanprod,2013-04-10 03:35:00,
2013-04-09 23:45:00,46.5,41.0,29.92,North,3,0.0,0.0,81,0.00,,,0.07,vanprod,2013-04-10 03:45:00,
2013-04-09 23:55:00,46.2,41.0,29.92,North,3,0.0,0.0,81,0.00,,,0.07,vanprod,2013-04-10 03:55:00,